Terminal Aerodrome Forecast
Issued by NWS

Home | Current Version | Previous Version | Text Only | Print | Product List | Glossary On
Versions: 1 2 3 4 5 6 7 8 9 10 11 12 13 14
100
FTUS43 KPAH 250520
TAFCGI
TAF
KCGI 250520Z 2506/2606 00000KT P6SM SKC
     FM250700 00000KT 5SM BR SKC
     FM251400 18003KT P6SM SCT060
     FM260100 27004KT P6SM BKN130=

USA.gov is the U.S. government's official web portal to all federal, state and local government web resources and services.